createdAt,value
2018-04-15T00:01:06.877Z,3.40
2018-04-15T00:03:18.270Z,3.53
2018-04-15T00:05:29.666Z,3.67
2018-04-15T00:07:41.840Z,2.87
2018-04-15T00:09:53.266Z,3.53
2018-04-15T00:12:04.678Z,2.90
2018-04-15T00:14:16.089Z,3.80
2018-04-15T00:16:27.617Z,3.63
2018-04-15T00:18:39.022Z,3.57
2018-04-15T00:20:51.475Z,3.37
2018-04-15T00:23:03.582Z,3.17
2018-04-15T00:25:15.050Z,4.40
2018-04-15T00:27:27.618Z,3.23
2018-04-15T00:29:39.018Z,3.83
2018-04-15T00:31:50.438Z,2.80
2018-04-15T00:34:01.877Z,4.47
2018-04-15T00:36:13.271Z,4.40
2018-04-15T00:38:25.404Z,3.40
2018-04-15T00:40:38.346Z,3.80
2018-04-15T00:42:49.714Z,3.27
2018-04-15T00:45:01.144Z,4.10
2018-04-15T00:47:13.305Z,3.33
2018-04-15T00:49:25.090Z,3.60
2018-04-15T00:51:36.505Z,4.37
2018-04-15T00:54:00.877Z,3.43
2018-04-15T00:56:12.233Z,3.17
2018-04-15T00:58:23.691Z,4.23
2018-04-15T01:00:35.159Z,3.43
2018-04-15T01:02:46.594Z,4.83
2018-04-15T01:04:59.297Z,3.57
2018-04-15T01:07:10.730Z,3.37
2018-04-15T01:09:22.120Z,5.43
2018-04-15T01:11:33.599Z,3.83
2018-04-15T01:13:45.011Z,4.00
2018-04-15T01:15:56.426Z,2.40
2018-04-15T01:18:08.049Z,3.63
2018-04-15T01:20:20.144Z,2.67
2018-04-15T01:22:31.682Z,3.37
2018-04-15T01:24:43.864Z,4.63
2018-04-15T01:26:55.258Z,3.13
2018-04-15T01:29:08.099Z,4.17
2018-04-15T01:31:19.525Z,3.87
2018-04-15T01:33:31.875Z,3.87
2018-04-15T01:35:43.242Z,4.17
2018-04-15T01:37:55.475Z,5.43
2018-04-15T01:40:07.388Z,3.73
2018-04-15T01:42:18.787Z,2.77
2018-04-15T01:44:30.537Z,3.30
2018-04-15T01:46:42.259Z,3.30
2018-04-15T01:48:54.218Z,4.43
2018-04-15T01:51:05.705Z,2.97
2018-04-15T01:53:17.109Z,5.03
2018-04-15T01:55:28.522Z,3.07
2018-04-15T01:57:40.643Z,2.67
2018-04-15T01:59:52.864Z,3.27
2018-04-15T02:02:04.221Z,3.73
2018-04-15T02:04:15.635Z,2.70
2018-04-15T02:06:27.003Z,3.47
2018-04-15T02:08:38.390Z,3.03
2018-04-15T02:10:49.818Z,2.40
2018-04-15T02:13:01.999Z,3.70
2018-04-15T02:15:13.482Z,3.13
2018-04-15T02:17:24.843Z,3.50
2018-04-15T02:19:36.358Z,2.80
2018-04-15T02:21:48.532Z,5.53
2018-04-15T02:24:00.020Z,3.00
2018-04-15T02:26:11.378Z,2.80
2018-04-15T02:28:22.810Z,2.87
2018-04-15T02:30:34.338Z,3.43
2018-04-15T02:32:45.990Z,3.03
2018-04-15T02:34:57.503Z,3.73
2018-04-15T02:37:08.915Z,3.23
2018-04-15T02:39:21.046Z,4.83
2018-04-15T02:41:32.402Z,3.90
2018-04-15T02:43:44.518Z,4.13
2018-04-15T02:45:56.074Z,4.10
2018-04-15T02:48:08.349Z,4.53
2018-04-15T02:50:19.811Z,5.10
2018-04-15T02:52:31.222Z,4.17
2018-04-15T02:54:42.620Z,3.90
2018-04-15T02:56:54.761Z,3.90
2018-04-15T02:59:06.194Z,4.03
2018-04-15T03:01:18.481Z,4.03
2018-04-15T03:03:30.574Z,3.87
2018-04-15T03:05:42.002Z,3.77
2018-04-15T03:07:53.466Z,3.47
2018-04-15T03:10:04.853Z,3.10
2018-04-15T03:12:16.280Z,2.87
2018-04-15T03:14:28.049Z,3.67
2018-04-15T03:16:40.201Z,3.93
2018-04-15T03:18:51.642Z,3.80
2018-04-15T03:21:03.952Z,3.00
2018-04-15T03:23:15.338Z,3.70
2018-04-15T03:25:28.011Z,3.90
2018-04-15T03:27:39.459Z,3.47
2018-04-15T03:29:51.033Z,3.30
2018-04-15T03:32:03.183Z,3.47
2018-04-15T03:34:15.152Z,3.10
2018-04-15T03:36:27.452Z,4.20
2018-04-15T03:38:38.832Z,3.20
2018-04-15T03:40:50.229Z,3.50
2018-04-15T03:43:01.653Z,4.47
2018-04-15T03:45:14.495Z,4.70
2018-04-15T03:47:26.826Z,3.97
2018-04-15T03:49:38.797Z,3.30
2018-04-15T03:51:50.177Z,3.63
2018-04-15T03:54:01.582Z,5.10
2018-04-15T03:56:14.077Z,3.90
2018-04-15T03:58:26.033Z,4.10
2018-04-15T04:00:38.199Z,3.80
2018-04-15T04:02:49.618Z,4.67
2018-04-15T04:05:01.084Z,3.57
2018-04-15T04:07:13.289Z,3.67
2018-04-15T04:09:25.508Z,5.23
2018-04-15T04:11:36.863Z,4.93
2018-04-15T04:13:50.160Z,3.77
2018-04-15T04:16:02.133Z,5.23
2018-04-15T04:18:25.779Z,4.67
2018-04-15T04:20:49.409Z,2.57
2018-04-15T04:23:13.170Z,3.73
2018-04-15T04:25:36.854Z,4.63
2018-04-15T04:27:48.253Z,4.70
2018-04-15T04:29:59.662Z,4.40
2018-04-15T04:32:11.923Z,4.30
2018-04-15T04:34:23.386Z,4.40
2018-04-15T04:36:34.791Z,4.47
2018-04-15T04:38:47.141Z,4.37
2018-04-15T04:40:58.547Z,4.30
2018-04-15T04:43:10.972Z,5.50
2018-04-15T04:45:22.422Z,6.23
2018-04-15T04:47:34.557Z,5.20
2018-04-15T04:49:45.971Z,4.73
2018-04-15T04:51:58.157Z,6.03
2018-04-15T04:54:09.522Z,4.67
2018-04-15T04:56:21.933Z,5.07
2018-04-15T04:58:33.907Z,5.33
2018-04-15T05:00:45.398Z,5.27
2018-04-15T05:02:56.803Z,4.13
2018-04-15T05:05:08.258Z,4.83
2018-04-15T05:07:19.682Z,4.67
2018-04-15T05:09:31.091Z,5.87
2018-04-15T05:11:43.230Z,3.93
2018-04-15T05:13:55.725Z,4.93
2018-04-15T05:16:07.161Z,5.27
2018-04-15T05:18:19.259Z,5.63
2018-04-15T05:20:31.591Z,4.70
2018-04-15T05:22:43.033Z,5.60
2018-04-15T05:24:54.509Z,4.53
2018-04-15T05:27:05.898Z,5.23
2018-04-15T05:29:17.985Z,3.23
2018-04-15T05:31:29.934Z,5.47
2018-04-15T05:33:41.377Z,4.20
2018-04-15T05:35:52.925Z,4.13
2018-04-15T05:38:05.139Z,3.80
2018-04-15T05:40:17.457Z,4.10
2018-04-15T05:42:28.972Z,4.10
2018-04-15T05:44:40.445Z,4.00
2018-04-15T05:46:51.806Z,5.13
2018-04-15T05:49:03.242Z,3.80
2018-04-15T05:51:14.667Z,4.53
2018-04-15T05:53:26.053Z,3.87
2018-04-15T05:55:37.466Z,3.90
2018-04-15T05:57:48.926Z,4.27
2018-04-15T06:00:00.333Z,5.63
2018-04-15T06:02:11.730Z,5.70
2018-04-15T06:04:23.209Z,5.03
2018-04-15T06:06:34.697Z,4.30
2018-04-15T06:08:46.082Z,5.70
2018-04-15T06:10:57.473Z,4.90
2018-04-15T06:13:10.683Z,5.43
2018-04-15T06:15:22.140Z,4.30
2018-04-15T06:17:33.600Z,6.13
2018-04-15T06:19:45.112Z,5.43
2018-04-15T06:21:56.520Z,6.23
2018-04-15T06:24:08.062Z,5.57
2018-04-15T06:26:19.422Z,6.00
2018-04-15T06:28:30.996Z,5.77
2018-04-15T06:30:42.469Z,5.83
2018-04-15T06:32:53.878Z,5.30
2018-04-15T06:35:05.308Z,5.60
2018-04-15T06:37:16.738Z,5.60
2018-04-15T06:39:28.285Z,6.90
2018-04-15T06:41:40.433Z,5.63
2018-04-15T06:43:51.987Z,6.50
2018-04-15T06:46:03.374Z,6.60
2018-04-15T06:48:14.806Z,6.70
2018-04-15T06:50:26.231Z,5.80
2018-04-15T06:52:37.644Z,6.93
2018-04-15T06:54:49.010Z,6.27
2018-04-15T06:57:00.476Z,6.30
2018-04-15T06:59:11.860Z,6.57
2018-04-15T07:01:23.287Z,7.07
2018-04-15T07:03:35.436Z,7.40
2018-04-15T07:05:46.861Z,6.03
2018-04-15T07:07:58.439Z,7.50
2018-04-15T07:10:11.020Z,6.67
2018-04-15T07:12:22.413Z,7.87
2018-04-15T07:14:34.004Z,5.60
2018-04-15T07:16:45.435Z,5.50
2018-04-15T07:18:56.931Z,5.00
2018-04-15T07:21:08.428Z,5.67
2018-04-15T07:23:19.829Z,5.97
2018-04-15T07:25:31.303Z,4.73
2018-04-15T07:27:42.795Z,6.33
2018-04-15T07:29:54.207Z,5.80
2018-04-15T07:32:05.602Z,6.90
2018-04-15T07:34:17.020Z,5.77
2018-04-15T07:36:28.487Z,5.33
2018-04-15T07:38:39.864Z,6.30
2018-04-15T07:40:51.276Z,5.90
2018-04-15T07:43:02.671Z,6.07
2018-04-15T07:45:15.220Z,6.00
2018-04-15T07:47:26.713Z,6.43
2018-04-15T07:49:38.217Z,5.87
2018-04-15T07:51:49.733Z,6.67
2018-04-15T07:54:01.147Z,6.07
2018-04-15T07:56:12.656Z,5.13
2018-04-15T07:58:24.474Z,5.50
2018-04-15T08:00:36.701Z,5.60
2018-04-15T08:02:48.075Z,6.23
2018-04-15T08:05:00.277Z,5.47
2018-04-15T08:07:12.782Z,6.57
2018-04-15T08:09:25.013Z,5.80
2018-04-15T08:11:37.750Z,5.83
2018-04-15T08:13:49.138Z,6.30
2018-04-15T08:16:00.599Z,7.07
2018-04-15T08:18:12.004Z,7.80
2018-04-15T08:20:23.662Z,6.70
2018-04-15T08:22:35.106Z,6.60
2018-04-15T08:24:46.645Z,8.87
2018-04-15T08:26:57.992Z,7.40
2018-04-15T08:29:09.400Z,7.27
2018-04-15T08:31:20.813Z,7.03
2018-04-15T08:33:33.547Z,8.17
2018-04-15T08:35:45.009Z,8.63
2018-04-15T08:37:56.630Z,9.13
2018-04-15T08:40:08.120Z,7.90
2018-04-15T10:17:03.541Z,2.03
2018-04-15T10:19:42.060Z,1.80
2018-04-15T10:21:53.265Z,2.50
2018-04-15T10:34:05.155Z,10.43
2018-04-15T10:40:20.304Z,10.00
2018-04-15T10:42:31.503Z,7.80
2018-04-15T10:44:42.602Z,10.73
2018-04-15T10:46:53.793Z,11.57
2018-04-15T10:49:04.947Z,9.63
2018-04-15T10:51:16.030Z,8.03
2018-04-15T10:53:27.156Z,9.27
2018-04-15T10:55:38.298Z,10.00
2018-04-15T10:57:49.538Z,8.80
2018-04-15T11:00:00.636Z,11.07
2018-04-15T11:02:11.805Z,10.23
2018-04-15T11:04:22.950Z,10.27
2018-04-15T11:06:34.104Z,9.63
2018-04-15T11:08:45.312Z,9.60
2018-04-15T11:10:56.478Z,9.10
2018-04-15T11:13:07.662Z,10.97
2018-04-15T11:15:18.758Z,12.33
2018-04-15T11:17:29.861Z,10.20
2018-04-15T11:19:40.971Z,10.37
2018-04-15T11:21:52.118Z,10.43
2018-04-15T11:24:03.317Z,11.40
2018-04-15T11:26:14.441Z,10.10
2018-04-15T11:28:25.626Z,10.23
2018-04-15T11:30:36.722Z,11.10
2018-04-15T11:32:47.865Z,8.77
2018-04-15T11:34:58.967Z,9.33
2018-04-15T11:37:10.051Z,11.73
2018-04-15T11:39:21.170Z,10.43
2018-04-15T11:41:32.261Z,11.13
2018-04-15T11:43:43.388Z,11.10
2018-04-15T11:45:54.477Z,10.70
2018-04-15T11:48:05.645Z,12.60
2018-04-15T11:50:21.341Z,11.23
2018-04-15T11:52:32.392Z,11.57
2018-04-15T11:54:43.602Z,10.10
2018-04-15T11:56:54.700Z,10.27
2018-04-15T11:59:05.888Z,10.47
2018-04-15T12:01:16.999Z,9.80
2018-04-15T12:03:28.078Z,9.87
2018-04-15T12:05:39.222Z,9.80
2018-04-15T12:07:50.310Z,9.53
2018-04-15T12:10:01.531Z,8.30
2018-04-15T12:12:12.591Z,10.43
2018-04-15T12:14:23.744Z,9.33
2018-04-15T12:16:34.854Z,10.03
2018-04-15T12:18:46.021Z,9.33
2018-04-15T12:20:57.111Z,7.93
2018-04-15T12:23:08.222Z,9.77
2018-04-15T12:25:19.350Z,6.13
2018-04-15T12:27:30.430Z,8.33
2018-04-15T12:29:41.517Z,8.97
2018-04-15T12:31:52.622Z,9.10
2018-04-15T12:34:03.762Z,9.00
2018-04-15T12:36:14.844Z,9.73
2018-04-15T12:38:26.076Z,8.77
2018-04-15T12:40:37.190Z,10.60
2018-04-15T12:42:48.290Z,9.87
2018-04-15T12:44:59.386Z,7.40
2018-04-15T12:47:10.479Z,8.87
2018-04-15T12:49:21.646Z,8.03
2018-04-15T12:51:32.718Z,8.03
2018-04-15T12:53:43.875Z,8.93
2018-04-15T12:55:54.975Z,9.00
2018-04-15T12:58:06.230Z,9.10
2018-04-15T13:00:17.293Z,10.27
2018-04-15T13:02:28.381Z,12.80
2018-04-15T13:04:39.556Z,10.30
2018-04-15T13:06:50.668Z,10.47
2018-04-15T13:09:01.916Z,11.33
2018-04-15T13:11:12.970Z,13.03
2018-04-15T13:13:24.092Z,11.20
2018-04-15T13:15:35.208Z,10.03
2018-04-15T13:17:46.340Z,10.20
2018-04-15T13:19:57.410Z,8.30
2018-04-15T13:22:08.525Z,8.23
2018-04-15T13:24:19.601Z,7.40
2018-04-15T13:26:30.666Z,8.20
2018-04-15T13:28:41.798Z,7.47
2018-04-15T13:30:52.897Z,8.60
2018-04-15T13:33:04.018Z,8.27
2018-04-15T13:35:15.103Z,9.47
2018-04-15T13:37:26.153Z,8.60
2018-04-15T13:39:37.285Z,10.10
2018-04-15T13:41:48.377Z,10.37
2018-04-15T13:43:59.463Z,9.00
2018-04-15T13:46:10.662Z,7.40
2018-04-15T13:48:21.760Z,8.70
2018-04-15T13:50:32.902Z,9.17
2018-04-15T13:52:45.582Z,9.67
2018-04-15T13:54:56.672Z,9.30
2018-04-15T13:57:07.795Z,8.73
2018-04-15T13:59:18.932Z,17.03
2018-04-15T14:01:30.158Z,24.67
2018-04-15T14:03:41.291Z,17.63
2018-04-15T14:05:52.438Z,9.20
2018-04-15T14:08:04.462Z,6.80
2018-04-15T14:10:15.559Z,9.07
2018-04-15T14:12:26.674Z,8.30
2018-04-15T14:14:37.797Z,8.13
2018-04-15T14:16:48.944Z,8.30
2018-04-15T14:19:00.114Z,8.43
2018-04-15T14:21:11.182Z,7.10
2018-04-15T14:23:22.278Z,8.00
2018-04-15T14:25:37.163Z,6.33
2018-04-15T14:27:48.322Z,8.23
2018-04-15T14:29:59.440Z,8.90
2018-04-15T14:32:10.738Z,6.93
2018-04-15T14:34:21.917Z,8.13
2018-04-15T14:36:33.045Z,9.07
2018-04-15T14:38:44.147Z,7.80
2018-04-15T14:40:57.100Z,7.43
2018-04-15T14:43:08.209Z,9.27
2018-04-15T14:45:19.307Z,8.07
2018-04-15T14:47:30.504Z,10.03
2018-04-15T14:49:41.633Z,7.43
2018-04-15T14:51:52.750Z,8.40
2018-04-15T14:54:03.901Z,5.30
2018-04-15T14:56:15.042Z,9.47
2018-04-15T14:58:26.233Z,7.80
2018-04-15T15:00:37.318Z,7.57
2018-04-15T15:02:48.383Z,8.83
2018-04-15T15:05:02.319Z,7.97
2018-04-15T15:07:13.394Z,10.50
2018-04-15T15:09:24.684Z,8.30
2018-04-15T15:11:35.818Z,8.93
2018-04-15T15:13:46.897Z,7.83
2018-04-15T15:15:58.000Z,6.90
2018-04-15T15:18:09.102Z,7.00
2018-04-15T15:20:20.294Z,7.97
2018-04-15T15:22:31.370Z,8.53
2018-04-15T15:24:42.502Z,7.47
2018-04-15T15:26:53.627Z,7.93
2018-04-15T15:29:04.815Z,8.37
2018-04-15T15:31:15.951Z,8.30
2018-04-15T15:33:27.035Z,8.80
2018-04-15T15:35:38.157Z,7.07
2018-04-15T15:37:49.283Z,7.63
2018-04-15T15:40:00.436Z,6.33
2018-04-15T15:42:11.582Z,8.20
2018-04-15T15:44:22.701Z,9.53
2018-04-15T15:46:33.805Z,9.03
2018-04-15T15:48:44.912Z,8.13
2018-04-15T15:50:55.974Z,6.77
2018-04-15T15:53:07.078Z,6.27
2018-04-15T15:55:18.214Z,7.70
2018-04-15T15:57:29.442Z,8.93
2018-04-15T15:59:40.655Z,7.20
2018-04-15T16:01:51.748Z,6.90
2018-04-15T16:04:02.878Z,9.87
2018-04-15T16:06:14.001Z,7.10
2018-04-15T16:08:25.180Z,6.03
2018-04-15T16:10:36.299Z,7.77
2018-04-15T16:12:47.382Z,9.97
2018-04-15T16:14:58.502Z,7.37
2018-04-15T16:17:09.600Z,6.07
2018-04-15T16:19:20.810Z,9.43
2018-04-15T16:21:31.919Z,5.70
2018-04-15T16:23:43.126Z,6.93
2018-04-15T16:25:54.291Z,8.33
2018-04-15T16:28:05.387Z,7.00
2018-04-15T16:30:16.689Z,5.67
2018-04-15T16:32:27.928Z,7.23
2018-04-15T16:34:39.055Z,6.37
2018-04-15T16:36:50.115Z,6.70
2018-04-15T16:39:01.227Z,6.03
2018-04-15T16:41:12.386Z,11.40
2018-04-15T16:43:23.513Z,7.40
2018-04-15T16:45:34.773Z,7.50
2018-04-15T16:47:45.920Z,7.63
2018-04-15T16:49:57.063Z,6.07
2018-04-15T16:52:08.153Z,7.90
2018-04-15T16:54:19.268Z,6.23
2018-04-15T16:56:30.398Z,6.47
2018-04-15T16:58:41.518Z,7.97
2018-04-15T17:00:52.647Z,7.53
2018-04-15T17:03:03.745Z,8.33
2018-04-15T17:05:15.820Z,9.13
2018-04-15T17:07:27.046Z,8.17
2018-04-15T17:09:39.209Z,7.63
2018-04-15T17:11:50.494Z,7.37
2018-04-15T17:14:01.647Z,7.10
2018-04-15T17:16:12.823Z,8.33
2018-04-15T17:18:23.982Z,9.80
2018-04-15T17:20:35.108Z,7.30
2018-04-15T17:22:46.239Z,9.73
2018-04-15T17:24:57.333Z,9.13
2018-04-15T17:27:08.482Z,8.37
2018-04-15T17:29:19.639Z,8.40
2018-04-15T17:31:30.831Z,7.07
2018-04-15T17:33:41.966Z,8.07
2018-04-15T17:35:53.075Z,9.27
2018-04-15T17:38:04.167Z,9.63
2018-04-15T17:40:15.285Z,7.17
2018-04-15T17:42:26.460Z,9.57
2018-04-15T17:44:37.553Z,7.43
2018-04-15T17:46:48.632Z,7.07
2018-04-15T17:48:59.801Z,9.10
2018-04-15T17:51:11.039Z,7.43
2018-04-15T17:53:22.216Z,7.50
2018-04-15T17:55:33.506Z,8.67
2018-04-15T17:57:44.601Z,11.93
2018-04-15T17:59:55.719Z,9.93
2018-04-15T18:02:06.827Z,7.67
2018-04-15T18:04:17.924Z,9.03
2018-04-15T18:06:29.024Z,11.97
2018-04-15T18:08:40.154Z,8.43
2018-04-15T18:10:51.378Z,7.50
2018-04-15T18:13:02.486Z,9.27
2018-04-15T18:15:13.718Z,10.63
2018-04-15T18:17:24.824Z,9.10
2018-04-15T18:19:35.981Z,11.03
2018-04-15T18:21:47.222Z,8.60
2018-04-15T18:23:58.266Z,10.67
2018-04-15T18:26:09.491Z,9.13
2018-04-15T18:28:21.212Z,7.80
2018-04-15T18:30:32.341Z,10.93
2018-04-15T18:32:43.458Z,8.07
2018-04-15T18:34:54.563Z,8.97
2018-04-15T18:37:05.778Z,7.83
2018-04-15T18:39:16.871Z,7.40
2018-04-15T18:41:28.019Z,10.17
2018-04-15T18:43:39.163Z,5.80
2018-04-15T18:45:50.315Z,5.30
2018-04-15T18:48:01.449Z,4.87
2018-04-15T18:50:12.652Z,6.57
2018-04-15T18:52:23.696Z,5.33
2018-04-15T18:54:34.803Z,4.43
2018-04-15T18:56:45.927Z,4.50
2018-04-15T18:58:57.193Z,6.17
2018-04-15T19:01:08.298Z,4.17
2018-04-15T19:03:19.620Z,4.30
2018-04-15T19:05:30.892Z,9.50
2018-04-15T19:07:42.015Z,9.07
2018-04-15T19:09:53.223Z,8.20
2018-04-15T19:12:04.311Z,8.67
2018-04-15T19:14:15.525Z,6.63
2018-04-15T19:16:26.637Z,6.20
2018-04-15T19:18:37.791Z,8.10
2018-04-15T19:20:48.941Z,7.57
2018-04-15T19:23:00.092Z,6.40
2018-04-15T19:25:11.299Z,6.47
2018-04-15T19:27:22.427Z,6.97
2018-04-15T19:29:33.571Z,5.33
2018-04-15T19:31:44.831Z,6.10
2018-04-15T19:33:56.010Z,7.57
2018-04-15T19:36:07.161Z,5.03
2018-04-15T19:38:18.298Z,6.07
2018-04-15T19:40:30.470Z,7.33
2018-04-15T19:42:41.686Z,5.80
2018-04-15T19:44:52.881Z,6.20
2018-04-15T19:47:04.012Z,6.80
2018-04-15T19:49:15.554Z,5.10
2018-04-15T19:51:26.620Z,6.23
2018-04-15T19:53:37.925Z,5.67
2018-04-15T19:55:49.048Z,7.53
2018-04-15T19:58:00.179Z,6.00
2018-04-15T20:00:12.157Z,5.47
2018-04-15T20:02:23.330Z,4.37
2018-04-15T20:04:34.522Z,4.57
2018-04-15T20:06:45.773Z,4.70
2018-04-15T20:08:56.914Z,8.20
2018-04-15T20:11:08.068Z,5.80
2018-04-15T20:13:19.186Z,6.27
2018-04-15T20:15:30.313Z,6.47
2018-04-15T20:17:41.409Z,5.53
2018-04-15T20:19:52.514Z,4.73
2018-04-15T20:22:03.799Z,5.67
2018-04-15T20:24:14.975Z,6.63
2018-04-15T20:26:26.118Z,5.47
2018-04-15T20:28:37.383Z,11.03
2018-04-15T20:30:48.539Z,7.00
2018-04-15T20:32:59.751Z,6.47
2018-04-15T20:35:10.871Z,4.47
2018-04-15T20:37:22.041Z,5.90
2018-04-15T20:39:33.175Z,6.80
2018-04-15T20:41:44.262Z,9.63
2018-04-15T20:43:55.433Z,5.63
2018-04-15T20:46:06.611Z,5.17
2018-04-15T20:48:17.956Z,5.83
2018-04-15T20:50:29.253Z,6.40
2018-04-15T20:52:40.330Z,3.93
2018-04-15T20:54:51.482Z,6.63
2018-04-15T20:57:02.576Z,5.43
2018-04-15T20:59:13.682Z,5.43
2018-04-15T21:01:24.806Z,5.23
2018-04-15T21:03:35.916Z,7.17
2018-04-15T21:05:47.091Z,3.83
2018-04-15T21:07:58.178Z,5.00
2018-04-15T21:10:09.303Z,5.17
2018-04-15T21:12:20.490Z,4.47
2018-04-15T21:14:31.597Z,4.87
2018-04-15T21:16:42.757Z,4.33
2018-04-15T21:18:53.871Z,4.97
2018-04-15T21:21:04.994Z,4.10
2018-04-15T21:23:16.090Z,4.97
2018-04-15T21:25:27.231Z,4.70
2018-04-15T21:27:38.338Z,5.27
2018-04-15T21:29:49.416Z,4.57
2018-04-15T21:32:00.593Z,4.47
2018-04-15T21:34:11.770Z,4.23
2018-04-15T21:36:22.918Z,5.13
2018-04-15T21:38:34.059Z,4.23
2018-04-15T21:40:45.153Z,4.97
2018-04-15T21:42:56.248Z,4.77
2018-04-15T21:45:07.346Z,4.87
2018-04-15T21:47:18.449Z,6.20
2018-04-15T21:49:29.727Z,6.30
2018-04-15T21:51:40.854Z,3.93
2018-04-15T21:53:52.062Z,5.33
2018-04-15T21:56:03.207Z,5.60
2018-04-15T21:58:14.318Z,5.23
2018-04-15T22:00:25.478Z,5.30
2018-04-15T22:02:36.630Z,4.60
2018-04-15T22:04:47.739Z,5.87
2018-04-15T22:06:58.861Z,5.60
2018-04-15T22:09:10.096Z,5.03
2018-04-15T22:11:34.582Z,3.37
2018-04-15T22:13:45.775Z,5.07
2018-04-15T22:15:56.940Z,5.60
2018-04-15T22:18:08.139Z,5.27
2018-04-15T22:20:19.304Z,6.10
2018-04-15T22:22:30.410Z,4.80
2018-04-15T22:24:41.586Z,4.63
2018-04-15T22:26:52.683Z,5.57
2018-04-15T22:29:03.749Z,5.93
2018-04-15T22:31:14.853Z,5.50
2018-04-15T22:33:25.924Z,5.83
2018-04-15T22:35:37.006Z,5.70
2018-04-15T22:37:48.163Z,5.33
2018-04-15T22:39:59.254Z,6.77
2018-04-15T22:42:10.389Z,6.57
2018-04-15T22:44:21.462Z,5.60
2018-04-15T22:46:32.629Z,6.13
2018-04-15T22:48:44.847Z,8.60
2018-04-15T22:50:55.986Z,8.13
2018-04-15T22:53:07.075Z,7.17
2018-04-15T22:55:18.169Z,10.83
2018-04-15T22:57:29.234Z,8.00
2018-04-15T22:59:40.314Z,9.87
2018-04-15T23:01:51.484Z,8.17
2018-04-15T23:04:02.683Z,9.90
2018-04-15T23:06:13.741Z,9.67
2018-04-15T23:08:24.823Z,8.87
2018-04-15T23:10:35.964Z,11.87
2018-04-15T23:12:47.034Z,11.90
2018-04-15T23:14:58.117Z,7.90
2018-04-15T23:17:09.188Z,8.83
2018-04-15T23:19:20.274Z,7.53
2018-04-15T23:21:31.365Z,8.63
2018-04-15T23:23:42.514Z,7.70
2018-04-15T23:25:53.595Z,6.93
2018-04-15T23:28:04.718Z,9.47
2018-04-15T23:30:15.802Z,7.83
2018-04-15T23:32:26.881Z,8.43
2018-04-15T23:34:37.959Z,8.73
2018-04-15T23:36:49.057Z,7.97
2018-04-15T23:39:00.248Z,6.90
2018-04-15T23:41:11.350Z,8.20
2018-04-15T23:43:22.453Z,7.20
2018-04-15T23:45:33.542Z,9.00
2018-04-15T23:47:44.685Z,9.00
2018-04-15T23:49:55.753Z,6.00
2018-04-15T23:52:06.833Z,7.60
2018-04-15T23:54:17.942Z,8.47
2018-04-15T23:56:29.018Z,7.97
2018-04-15T23:58:40.129Z,7.60
